Terminal Aerodrome Forecast
Issued by NWS

Home | Current Version | Previous Version | Text Only | Print | Product List | Glossary On
Versions: 1 2 3 4 5 6 7 8 9 10 11 12 13
000
FTUS46 KMTR 281731
TAFSNS
TAF
KSNS 281731Z 2818/2918 10005KT P6SM SCT250
     FM281900 29012KT P6SM SCT250
     FM290600 30006KT P6SM SCT250
     FM291300 30005KT P6SM SCT010 SCT250
     FM291500 29004KT P6SM SCT250=

USA.gov is the U.S. government's official web portal to all federal, state and local government web resources and services.